Aérodrome :
LOGIN :

S'inscrire | Disclaimer

   EN    FR    IT 

 










Légende :    VFR   VFR Marginal   IFR   IFR Intensif   IFR Très Intensif
Visi : 
Plafond : 
>= 8 km
>= 3000ft
5 à 8 km
1000 à 3000 ft
1500m à 5 km
500 à 1000 ft
800 à 1500m
200 à 500 ft
< 800m
< 200 ft
Symboles :   Orages  Brouillard  Fortes neiges  Fortes précipitations  Vent > 20 kt
SIGMETs :   Divers  Orages  Givrage  Turbulence  Onde Orograph.  Cendres Volcan.






- Altitude de l'aérodrome : 20 ft
- Code IATA : DLM


LTBS - Dalaman

DERNIER METAR :
  • 270750Z 22010KT 9999 FEW030 SCT100 22/15 Q1014 NOSIG RMK RWY19 20012KT 170V230

METARs EXPIRÉS :
  • 270720Z 23012KT 9999 FEW030 SCT090 22/14 Q1014 NOSIG RMK RWY19 20012KT 170V230
  • 270650Z 24011KT 9999 FEW030 SCT090 21/14 Q1014 NOSIG RMK RWY19 21012KT
  • 270620Z 23012KT 9999 FEW030 SCT090 21/14 Q1014 NOSIG RMK RWY19 20010KT
  • 270550Z 24011KT 9999 SCT030 BKN090 21/15 Q1014 NOSIG RMK RWY19 22010KT
  • 270520Z 25011KT 9999 SCT020 BKN080 20/15 Q1014 NOSIG

TAF TAF LTBS
Valide du 27 à 06h jusqu'au 28 à 06h UTC


270440Z 2706/2806 VRB02KT 9999 SCT030 BKN100
TEMPO 2706/2710 -SHRA
BECMG 2706/2708 21012KT
BECMG 2715/2717 VRB02KT



MET'MAP, la Météo Aéronautique d'un coup d'oeil ! - Copyright ORBIFLY Décembre 2007 - Disclaimer

ORBIFLY MET'MAP TEAM :

Programmation & Développement : Alexandra Zaïnal
Sur une idée originale de : Baudouin d'Aumeries
Assistance à la programmation : Marc-Olivier Méhu
Soutien technique & logistique : Manuel Goepfert

Contact : metmap@orbifly.com




SOURCES & CREDITS :

   NOAA